createdAt,value
2023-04-02T00:02:39.903Z,6
2023-04-02T00:04:40.937Z,6
2023-04-02T00:06:42.132Z,5.9
2023-04-02T00:08:43.329Z,5.9
2023-04-02T00:10:47.756Z,5.9
2023-04-02T00:12:48.916Z,5.9
2023-04-02T00:14:50.091Z,5.9
2023-04-02T00:16:51.398Z,5.9
2023-04-02T00:18:52.470Z,5.8
2023-04-02T00:22:54.830Z,5.8
2023-04-02T00:24:59.267Z,5.8
2023-04-02T00:31:02.853Z,5.7
2023-04-02T00:33:04.042Z,5.7
2023-04-02T00:35:05.224Z,5.7
2023-04-02T00:37:06.379Z,5.7
2023-04-02T00:41:12.045Z,5.7
2023-04-02T00:45:14.396Z,5.7
2023-04-02T00:47:15.597Z,5.7
2023-04-02T00:49:16.776Z,5.7
2023-04-02T00:53:22.422Z,5.7
2023-04-02T00:57:24.903Z,5.7
2023-04-02T00:58:26.990Z,5.7
2023-04-02T01:00:28.198Z,5.7
2023-04-02T01:02:29.532Z,5.7
2023-04-02T01:06:34.984Z,5.7
2023-04-02T01:08:36.210Z,5.7
2023-04-02T01:12:38.567Z,5.6
2023-04-02T01:14:39.780Z,5.7
2023-04-02T01:16:40.952Z,5.6
2023-04-02T01:18:42.115Z,5.6
2023-04-02T01:20:46.581Z,5.6
2023-04-02T01:22:47.724Z,5.6
2023-04-02T01:24:48.921Z,5.5
2023-04-02T01:26:50.079Z,5.5
2023-04-02T01:28:51.266Z,5.5
2023-04-02T01:30:52.490Z,5.5
2023-04-02T01:32:53.727Z,5.5
2023-04-02T01:34:58.088Z,5.4
2023-04-02T01:36:59.310Z,5.4
2023-04-02T01:39:00.430Z,5.4
2023-04-02T01:41:01.664Z,5.4
2023-04-02T01:43:02.774Z,5.4
2023-04-02T01:45:03.958Z,5.4
2023-04-02T01:47:05.145Z,5.3
2023-04-02T01:51:10.775Z,5.2
2023-04-02T01:54:14.187Z,5.2
2023-04-02T01:56:15.393Z,5.2
2023-04-02T01:58:16.533Z,5.2
2023-04-02T02:00:17.791Z,5.2
2023-04-02T02:02:22.198Z,5.3
2023-04-02T02:04:23.351Z,5.3
2023-04-02T02:08:25.713Z,5.3
2023-04-02T02:10:26.896Z,5.3
2023-04-02T02:16:33.759Z,5.3
2023-04-02T02:20:36.039Z,5.3
2023-04-02T02:22:37.237Z,5.2
2023-04-02T02:24:38.445Z,5.2
2023-04-02T02:32:46.451Z,5.1
2023-04-02T02:42:52.325Z,4.9
2023-04-02T02:44:56.782Z,4.9
2023-04-02T02:46:57.943Z,4.9
2023-04-02T02:53:28.683Z,4.9
2023-04-02T02:57:34.341Z,4.8
2023-04-02T03:03:37.944Z,4.9
2023-04-02T03:07:40.141Z,4.9
2023-04-02T03:19:50.383Z,4.5
2023-04-02T03:23:52.742Z,4.4
2023-04-02T03:27:58.330Z,4.3
2023-04-02T03:29:59.507Z,4.3
2023-04-02T03:34:01.835Z,4.3
2023-04-02T03:36:03.120Z,4.2
2023-04-02T03:38:04.168Z,4.2
2023-04-02T03:40:08.586Z,4.3
2023-04-02T03:42:09.742Z,4.2
2023-04-02T03:44:10.935Z,4.2
2023-04-02T03:45:13.134Z,4.2
2023-04-02T03:47:14.301Z,4.2
2023-04-02T03:51:16.657Z,4.1
2023-04-02T03:55:22.270Z,4.1
2023-04-02T03:57:23.458Z,4.1
2023-04-02T04:03:26.912Z,4
2023-04-02T04:05:28.081Z,4
2023-04-02T04:07:32.509Z,4
2023-04-02T04:09:33.706Z,3.9
2023-04-02T04:17:38.356Z,3.8
2023-04-02T04:21:43.956Z,3.7
2023-04-02T04:23:45.093Z,3.7
2023-04-02T04:25:46.275Z,3.7
2023-04-02T04:27:47.440Z,3.6
2023-04-02T04:29:48.606Z,3.6
2023-04-02T04:31:49.897Z,3.6
2023-04-02T04:33:50.949Z,3.6
2023-04-02T04:35:55.373Z,3.6
2023-04-02T04:37:56.507Z,3.5
2023-04-02T04:39:57.670Z,3.5
2023-04-02T04:43:01.029Z,3.5
2023-04-02T04:45:02.211Z,3.5
2023-04-02T04:55:11.240Z,3.4
2023-04-02T04:57:12.394Z,3.4
2023-04-02T04:59:13.515Z,3.3
2023-04-02T05:01:14.771Z,3.4
2023-04-02T05:03:19.181Z,3.3
2023-04-02T05:13:24.958Z,3.2
2023-04-02T05:15:26.096Z,3.2
2023-04-02T05:19:31.659Z,3.1
2023-04-02T05:23:33.996Z,3
2023-04-02T05:25:35.383Z,2.9
2023-04-02T05:27:36.304Z,2.9
2023-04-02T05:36:46.300Z,2.9
2023-04-02T05:38:47.971Z,2.8
2023-04-02T05:40:49.121Z,2.8
2023-04-02T05:44:54.655Z,2.7
2023-04-02T05:46:55.888Z,2.7
2023-04-02T05:48:58.517Z,2.8
2023-04-02T05:50:59.622Z,2.7
2023-04-02T05:55:01.876Z,2.7
2023-04-02T05:57:03.091Z,2.7
2023-04-02T05:59:07.455Z,2.6
2023-04-02T06:09:13.120Z,2.5
2023-04-02T06:11:14.230Z,2.5
2023-04-02T06:13:18.642Z,2.6
2023-04-02T06:17:20.928Z,2.5
2023-04-02T06:21:23.199Z,2.5
2023-04-02T06:25:25.454Z,2.5
2023-04-02T06:27:29.882Z,2.5
2023-04-02T06:29:31.029Z,2.5
2023-04-02T06:31:32.172Z,2.5
2023-04-02T06:36:01.742Z,2.6
2023-04-02T06:38:02.915Z,2.6
2023-04-02T06:40:07.219Z,2.6
2023-04-02T06:42:08.385Z,2.5
2023-04-02T06:44:09.550Z,2.5
2023-04-02T06:46:10.719Z,2.5
2023-04-02T06:48:11.851Z,2.5
2023-04-02T07:12:31.957Z,2.7
2023-04-02T07:22:40.931Z,2.5
2023-04-02T07:24:42.020Z,2.5
2023-04-02T07:27:45.364Z,2.4
2023-04-02T07:29:46.512Z,2.5
2023-04-02T07:41:56.660Z,2.4
2023-04-02T07:45:58.911Z,2.3
2023-04-02T07:50:04.452Z,2.4
2023-04-02T07:52:05.609Z,2.4
2023-04-02T07:54:06.743Z,2.4
2023-04-02T07:58:09.022Z,2.3
2023-04-02T08:04:15.775Z,2.3
2023-04-02T08:10:19.104Z,2.3
2023-04-02T08:16:22.534Z,2.4
2023-04-02T08:18:26.898Z,2.2
2023-04-02T08:20:28.028Z,2.3
2023-04-02T08:22:29.163Z,2.3
2023-04-02T08:23:31.387Z,2.4
2023-04-02T08:27:33.629Z,2.6
2023-04-02T08:29:34.761Z,2.6
2023-04-02T08:33:40.300Z,2.9
2023-04-02T08:37:42.583Z,2.9
2023-04-02T08:39:43.751Z,2.9
2023-04-02T08:41:44.889Z,2.9
2023-04-02T08:43:46.022Z,3.1
2023-04-02T08:45:50.445Z,3.1
2023-04-02T08:47:51.605Z,3.2
2023-04-02T08:49:52.693Z,3
2023-04-02T08:51:53.820Z,3.1
2023-04-02T08:53:54.976Z,3.1
2023-04-02T09:02:02.832Z,3.3
2023-04-02T09:04:03.947Z,3.3
2023-04-02T09:06:05.128Z,3.4
2023-04-02T09:08:06.260Z,3.4
2023-04-02T09:10:07.404Z,3.5
2023-04-02T09:12:08.693Z,3.5
2023-04-02T09:16:14.281Z,3.5
2023-04-02T09:18:15.394Z,3.5
2023-04-02T09:19:17.562Z,3.5
2023-04-02T09:21:18.715Z,3.4
2023-04-02T09:25:21.046Z,5
2023-04-02T09:37:31.447Z,5.1
2023-04-02T09:39:32.466Z,5.2
2023-04-02T09:41:37.329Z,5
2023-04-02T09:43:38.069Z,5.4
2023-04-02T09:45:39.235Z,5.7
2023-04-02T09:57:49.977Z,5
2023-04-02T09:59:50.727Z,5.6
2023-04-02T10:03:53.069Z,6.1
2023-04-02T10:05:54.229Z,6.8
2023-04-02T10:09:59.881Z,7.7
2023-04-02T10:12:01.075Z,7.5
2023-04-02T10:16:30.674Z,7.3
2023-04-02T10:18:31.886Z,7.4
2023-04-02T10:20:39.051Z,8.8
2023-04-02T10:22:37.457Z,9.5
2023-04-02T10:24:38.635Z,9.4
2023-04-02T10:26:39.831Z,9
2023-04-02T10:28:41.206Z,9.3
2023-04-02T10:30:42.296Z,9.6
2023-04-02T10:32:43.482Z,9.5
2023-04-02T10:34:44.704Z,8.3
2023-04-02T10:36:49.178Z,8
2023-04-02T10:38:50.383Z,8.4
2023-04-02T10:40:51.569Z,7.7
2023-04-02T10:44:54.011Z,9.7
2023-04-02T10:46:55.241Z,9.5
2023-04-02T10:48:56.432Z,8.5
2023-04-02T10:51:00.937Z,10.2
2023-04-02T10:53:02.147Z,10.5
2023-04-02T10:57:04.608Z,9.2
2023-04-02T10:59:05.799Z,8.2
2023-04-02T11:01:07.101Z,7.7
2023-04-02T11:03:08.357Z,8.5
2023-04-02T11:05:12.714Z,9
2023-04-02T11:07:15.010Z,9
2023-04-02T11:12:18.662Z,8.8
2023-04-02T11:18:25.588Z,8.8
2023-04-02T11:20:26.786Z,9
2023-04-02T11:32:37.392Z,9.7
2023-04-02T11:34:38.610Z,9.3
2023-04-02T11:40:43.788Z,9.3
2023-04-02T11:42:44.988Z,7.5
2023-04-02T11:44:46.213Z,7.2
2023-04-02T11:46:50.756Z,6.9
2023-04-02T11:48:51.967Z,7
2023-04-02T11:52:54.424Z,7.2
2023-04-02T11:58:58.038Z,7.7
2023-04-02T12:03:03.765Z,7.2
2023-04-02T12:05:04.958Z,7.5
2023-04-02T12:06:07.190Z,7.8
2023-04-02T12:08:08.395Z,7.9
2023-04-02T12:12:10.825Z,7.4
2023-04-02T12:16:16.533Z,7.7
2023-04-02T12:18:17.709Z,7.7
2023-04-02T12:20:18.944Z,7.5
2023-04-02T12:22:20.154Z,7.6
2023-04-02T12:26:23.145Z,7.6
2023-04-02T12:28:27.079Z,7.8
2023-04-02T12:30:28.319Z,7.8
2023-04-02T12:32:30.056Z,8.2
2023-04-02T12:34:30.747Z,8.5
2023-04-02T12:38:33.189Z,8.1
2023-04-02T12:40:34.725Z,7.9
2023-04-02T12:42:38.889Z,8
2023-04-02T12:54:46.168Z,8.2
2023-04-02T12:56:50.641Z,8.5
2023-04-02T12:58:51.871Z,8.3
2023-04-02T13:00:53.116Z,8.4
2023-04-02T13:01:55.380Z,8.3
2023-04-02T13:03:56.580Z,8.2
2023-04-02T13:07:58.967Z,8.3
2023-04-02T13:10:03.482Z,8.5
2023-04-02T13:12:04.684Z,8.4
2023-04-02T13:18:08.472Z,8.7
2023-04-02T13:20:09.574Z,9
2023-04-02T13:22:10.801Z,9
2023-04-02T13:24:15.265Z,8.9
2023-04-02T13:36:22.598Z,9.2
2023-04-02T13:40:28.296Z,9
2023-04-02T13:48:33.178Z,8.6
2023-04-02T13:50:34.627Z,8.8
2023-04-02T13:52:38.873Z,8.5
2023-04-02T13:54:40.096Z,8.5
2023-04-02T13:56:41.314Z,8.8
2023-04-02T14:01:10.912Z,9.2
2023-04-02T14:03:12.110Z,9
2023-04-02T14:05:16.573Z,9.2
2023-04-02T14:27:33.335Z,9.3
2023-04-02T14:29:34.557Z,9.4
2023-04-02T14:31:35.961Z,9.3
2023-04-02T14:45:47.633Z,9.3
2023-04-02T14:49:53.331Z,9.4
2023-04-02T14:51:54.561Z,9.6
2023-04-02T14:52:56.829Z,9.9
2023-04-02T14:54:58.045Z,9.9
2023-04-02T14:56:59.326Z,9.9
2023-04-02T14:59:01.932Z,9.9
2023-04-02T15:01:05.008Z,9.8
2023-04-02T15:03:06.296Z,9.7
2023-04-02T15:05:07.504Z,9.7
2023-04-02T15:21:20.575Z,9.4
2023-04-02T15:37:33.690Z,9.7
2023-04-02T15:39:34.953Z,9.7
2023-04-02T15:45:41.882Z,9.5
2023-04-02T15:47:43.155Z,9.4
2023-04-02T15:48:45.350Z,9.4
2023-04-02T15:50:46.549Z,9.3
2023-04-02T15:52:47.806Z,9.5
2023-04-02T16:00:55.988Z,9.5
2023-04-02T16:09:00.883Z,9.7
2023-04-02T16:13:06.569Z,9.7
2023-04-02T16:25:17.211Z,9.6
2023-04-02T16:29:19.663Z,9.5
2023-04-02T16:31:20.990Z,9.6
2023-04-02T16:37:24.593Z,9.6
2023-04-02T16:52:41.912Z,9.5
2023-04-02T16:54:43.298Z,9.5
2023-04-02T16:56:44.323Z,9.4
2023-04-02T16:58:45.545Z,9.4
2023-04-02T17:00:46.793Z,9.4
2023-04-02T17:02:48.047Z,9.4
2023-04-02T17:04:49.224Z,9.4
2023-04-02T17:06:53.702Z,9.3
2023-04-02T17:08:54.932Z,9.3
2023-04-02T17:10:56.153Z,9.2
2023-04-02T17:12:57.375Z,9.2
2023-04-02T17:14:58.600Z,9.2
2023-04-02T17:16:59.825Z,9.1
2023-04-02T17:23:06.768Z,8.9
2023-04-02T17:25:08.030Z,8.9
2023-04-02T17:33:14.421Z,8.8
2023-04-02T17:35:18.901Z,8.7
2023-04-02T17:41:49.717Z,8.7
2023-04-02T17:43:50.908Z,8.6
2023-04-02T17:45:52.245Z,8.6
2023-04-02T17:47:56.698Z,8.6
2023-04-02T17:49:57.853Z,8.6
2023-04-02T17:51:59.073Z,8.6
2023-04-02T17:54:00.296Z,8.5
2023-04-02T17:56:01.506Z,8.5
2023-04-02T18:00:03.964Z,8.4
2023-04-02T18:04:09.680Z,8.4
2023-04-02T18:08:12.142Z,8.3
2023-04-02T18:10:13.381Z,8.3
2023-04-02T18:12:14.559Z,8.3
2023-04-02T18:14:15.809Z,8.2
2023-04-02T18:16:20.345Z,8.2
2023-04-02T18:20:22.686Z,8.1
2023-04-02T18:24:25.101Z,8
2023-04-02T18:26:26.312Z,8
2023-04-02T18:28:27.526Z,8
2023-04-02T18:30:31.994Z,7.9
2023-04-02T18:32:33.221Z,7.8
2023-04-02T18:34:34.433Z,7.7
2023-04-02T18:35:36.744Z,7.7
2023-04-02T18:37:37.911Z,7.6
2023-04-02T18:41:40.343Z,7.5
2023-04-02T18:47:47.285Z,7.4
2023-04-02T18:49:48.494Z,7.4
2023-04-02T18:51:49.705Z,7.3
2023-04-02T18:53:50.904Z,7.3
2023-04-02T18:55:52.125Z,7.3
2023-04-02T18:59:57.768Z,7.2
2023-04-02T19:01:58.985Z,7.2
2023-04-02T19:04:00.315Z,7.1
2023-04-02T19:08:02.606Z,7
2023-04-02T19:10:03.829Z,7
2023-04-02T19:12:08.316Z,6.9
2023-04-02T19:14:09.514Z,6.9
2023-04-02T19:16:10.749Z,6.9
2023-04-02T19:20:13.112Z,6.9
2023-04-02T19:22:14.342Z,6.8
2023-04-02T19:30:22.409Z,6.7
2023-04-02T19:31:24.691Z,6.7
2023-04-02T19:39:32.700Z,6.6
2023-04-02T19:47:37.574Z,6.5
2023-04-02T19:49:38.727Z,6.4
2023-04-02T19:53:44.368Z,6.4
2023-04-02T19:55:45.590Z,6.4
2023-04-02T19:57:46.763Z,6.4
2023-04-02T19:59:47.978Z,6.3
2023-04-02T20:01:49.161Z,6.3
2023-04-02T20:03:50.395Z,6.2
2023-04-02T20:05:51.565Z,6.2
2023-04-02T20:07:56.107Z,6.1
2023-04-02T20:09:57.192Z,6.1
2023-04-02T20:11:58.409Z,6.1
2023-04-02T20:13:59.634Z,6
2023-04-02T20:16:00.829Z,6
2023-04-02T20:27:12.324Z,5.8
2023-04-02T20:29:13.559Z,5.8
2023-04-02T20:31:14.783Z,5.7
2023-04-02T20:35:20.406Z,5.6
2023-04-02T20:57:36.891Z,5.2
2023-04-02T21:07:45.914Z,5
2023-04-02T21:19:56.219Z,4.8
2023-04-02T21:26:27.022Z,4.7
2023-04-02T21:28:28.170Z,4.6
2023-04-02T21:30:32.594Z,4.6
2023-04-02T21:32:33.793Z,4.6
2023-04-02T21:34:34.925Z,4.6
2023-04-02T21:36:36.113Z,4.6
2023-04-02T21:38:37.277Z,4.5
2023-04-02T21:40:38.475Z,4.5
2023-04-02T21:42:39.654Z,4.5
2023-04-02T21:44:44.088Z,4.4
2023-04-02T21:46:45.301Z,4.4
2023-04-02T21:48:46.463Z,4.3
2023-04-02T21:50:47.654Z,4.3
2023-04-02T21:52:48.821Z,4.3
2023-04-02T21:54:49.994Z,4.3
2023-04-02T21:56:51.208Z,4.3
2023-04-02T21:58:55.635Z,4.2
2023-04-02T22:00:56.845Z,4.2
2023-04-02T22:02:58.087Z,4.2
2023-04-02T22:04:59.128Z,4.2
2023-04-02T22:07:00.361Z,4.2
2023-04-02T22:09:01.525Z,4.1
2023-04-02T22:11:02.682Z,4.1
2023-04-02T22:13:07.116Z,4.1
2023-04-02T22:15:08.275Z,4.1
2023-04-02T22:20:12.871Z,4
2023-04-02T22:30:21.970Z,3.9
2023-04-02T22:32:23.189Z,3.8
2023-04-02T22:34:24.279Z,3.8
2023-04-02T22:36:25.458Z,3.8
2023-04-02T22:38:26.618Z,3.7
2023-04-02T22:40:31.018Z,3.7
2023-04-02T22:42:32.200Z,3.7
2023-04-02T22:44:33.360Z,3.7
2023-04-02T22:46:34.620Z,3.6
2023-04-02T22:48:35.638Z,3.6
2023-04-02T22:50:36.966Z,3.6
2023-04-02T22:52:37.979Z,3.6
2023-04-02T22:56:43.549Z,3.5
2023-04-02T22:58:44.723Z,3.5
2023-04-02T23:08:53.774Z,3.4
2023-04-02T23:12:56.041Z,3.4
2023-04-02T23:13:58.275Z,3.3
2023-04-02T23:26:09.956Z,3.2
2023-04-02T23:28:11.064Z,3.2
2023-04-02T23:30:12.208Z,3.3
2023-04-02T23:34:14.471Z,3.2
2023-04-02T23:38:20.004Z,3.1
2023-04-02T23:40:21.157Z,3.1
2023-04-02T23:42:22.299Z,3.1
2023-04-02T23:44:23.455Z,3.2
2023-04-02T23:46:24.687Z,3.1
2023-04-02T23:48:25.754Z,3.1
2023-04-02T23:50:30.183Z,3.1
2023-04-02T23:52:31.329Z,3.1
2023-04-02T23:54:32.452Z,3
2023-04-02T23:56:33.626Z,3
2023-04-02T23:58:34.734Z,3
